Time;durP1;ratioP1;P1;durP2;ratioP2;P2;SDS_P1;SDS_P2;PMS_P1;PMS_P2;Temp;Humidity;BMP_temperature;BMP_pressure;BME280_temperature;BME280_humidity;BME280_pressure;Samples;Min_cycle;Max_cycle;Signal;HPM_P1;HPM_P2
2022/05/31 00:02:44;;;;;;;3.20;1.70;;;11.50;99.90;;;;;;4932484;29;20215;-71
2022/05/31 00:05:28;;;;;;;3.23;1.80;;;11.50;99.90;;;;;;4942261;28;20234;-72
2022/05/31 00:08:13;;;;;;;2.87;1.93;;;11.50;99.90;;;;;;4923680;29;20762;-71
2022/05/31 00:10:58;;;;;;;2.67;1.63;;;11.50;99.90;;;;;;4922617;29;20697;-72
2022/05/31 00:13:42;;;;;;;6.53;2.03;;;11.40;99.90;;;;;;4929703;29;20715;-73
2022/05/31 00:16:26;;;;;;;1.53;1.43;;;11.40;99.90;;;;;;4931823;29;20279;-71
2022/05/31 00:19:10;;;;;;;5.33;2.10;;;11.40;99.90;;;;;;4929045;29;20203;-71
2022/05/31 00:22:03;;;;;;;2.00;1.80;;;11.30;99.90;;;;;;4925702;29;20243;-72
2022/05/31 00:24:48;;;;;;;1.80;1.67;;;11.30;99.90;;;;;;4926538;29;20270;-71
2022/05/31 00:27:32;;;;;;;2.37;2.17;;;11.30;99.90;;;;;;4925755;29;20237;-71
2022/05/31 00:30:17;;;;;;;2.60;1.93;;;11.30;99.90;;;;;;4937387;29;20721;-71
2022/05/31 00:33:02;;;;;;;5.10;1.97;;;11.20;99.90;;;;;;4946460;28;20242;-71
2022/05/31 00:35:48;;;;;;;2.53;2.03;;;11.20;99.90;;;;;;4927583;29;20195;-71
2022/05/31 00:38:33;;;;;;;2.83;1.77;;;11.10;99.90;;;;;;4925767;29;20227;-71
2022/05/31 00:41:24;;;;;;;5.10;1.97;;;11.10;99.90;;;;;;4927485;29;20214;-71
2022/05/31 00:44:16;;;;;;;1.93;1.80;;;11.10;99.90;;;;;;4932577;29;20283;-71
2022/05/31 00:47:17;;;;;;;2.10;1.90;;;11.00;99.90;;;;;;4941962;28;20202;-71
2022/05/31 00:50:09;;;;;;;2.20;1.90;;;11.00;99.90;;;;;;4928101;29;20705;-71
2022/05/31 00:52:58;;;;;;;3.03;2.10;;;10.90;99.90;;;;;;4927345;29;20185;-71
2022/05/31 00:55:55;;;;;;;2.43;2.00;;;10.90;99.90;;;;;;4932670;29;20255;-71
2022/05/31 00:58:47;;;;;;;3.33;2.00;;;10.90;99.90;;;;;;4935386;28;20330;-71
2022/05/31 01:01:36;;;;;;;2.23;2.00;;;10.80;99.90;;;;;;4930415;29;20222;-71
2022/05/31 01:04:29;;;;;;;3.00;2.20;;;10.90;99.90;;;;;;4928812;29;20187;-71
2022/05/31 01:07:13;;;;;;;5.10;2.20;;;10.90;99.90;;;;;;4928901;29;20223;-71
2022/05/31 01:09:58;;;;;;;2.33;1.80;;;10.80;99.90;;;;;;4931826;29;20210;-71
2022/05/31 01:12:45;;;;;;;2.10;1.90;;;10.80;99.90;;;;;;4923933;29;20242;-71
2022/05/31 01:15:29;;;;;;;3.17;2.20;;;10.80;99.90;;;;;;4925670;29;20230;-71
2022/05/31 01:18:15;;;;;;;4.07;1.80;;;10.70;99.90;;;;;;4925029;29;20269;-71
2022/05/31 01:21:02;;;;;;;2.57;1.93;;;10.70;99.90;;;;;;4926916;29;20282;-71
2022/05/31 01:24:10;;;;;;;2.47;1.93;;;10.70;99.90;;;;;;4924598;29;20263;-71
2022/05/31 01:27:12;;;;;;;2.00;1.87;;;10.60;99.90;;;;;;4927635;29;20210;-71
2022/05/31 01:30:00;;;;;;;2.93;2.20;;;10.60;99.90;;;;;;4931180;29;20245;-71
2022/05/31 01:33:14;;;;;;;2.63;1.90;;;10.60;99.90;;;;;;4938939;29;20231;-71
2022/05/31 01:36:06;;;;;;;2.20;1.87;;;10.50;99.90;;;;;;4935079;29;20309;-71
2022/05/31 01:39:07;;;;;;;2.63;2.10;;;10.50;99.90;;;;;;4932949;29;20646;-71
2022/05/31 01:42:02;;;;;;;3.20;2.17;;;10.50;99.90;;;;;;4931387;29;20281;-71
2022/05/31 01:44:53;;;;;;;2.47;1.93;;;10.40;99.90;;;;;;4939909;28;20190;-71
2022/05/31 01:47:38;;;;;;;5.10;2.17;;;10.40;99.90;;;;;;4935531;29;20230;-71
2022/05/31 01:50:23;;;;;;;3.33;2.20;;;10.30;99.90;;;;;;4931658;29;20211;-71
2022/05/31 01:53:09;;;;;;;2.60;2.40;;;10.30;99.90;;;;;;4935105;29;20201;-71
2022/05/31 01:55:53;;;;;;;2.50;2.30;;;10.20;99.90;;;;;;4929902;29;20194;-71
2022/05/31 01:58:41;;;;;;;2.70;2.10;;;10.20;99.90;;;;;;4934233;29;20203;-71
2022/05/31 02:01:27;;;;;;;3.23;2.43;;;10.20;99.90;;;;;;4929365;29;20218;-71
2022/05/31 02:04:16;;;;;;;4.67;2.27;;;10.10;99.90;;;;;;4922893;29;20291;-70
2022/05/31 02:07:16;;;;;;;11.93;2.47;;;10.10;99.90;;;;;;4931064;29;20257;-71
2022/05/31 02:10:00;;;;;;;3.00;2.40;;;10.10;99.90;;;;;;4922785;29;20219;-71
2022/05/31 02:12:44;;;;;;;2.67;2.10;;;10.00;99.90;;;;;;4929540;29;20246;-71
2022/05/31 02:15:28;;;;;;;2.77;2.57;;;9.90;99.90;;;;;;4934614;29;20190;-71
2022/05/31 02:18:13;;;;;;;4.13;2.20;;;9.90;99.90;;;;;;4932480;29;20575;-71
2022/05/31 02:20:57;;;;;;;3.47;2.40;;;9.80;99.90;;;;;;4928102;29;20804;-71
2022/05/31 02:23:41;;;;;;;3.27;2.47;;;9.80;99.90;;;;;;4933416;29;20282;-71
2022/05/31 02:26:25;;;;;;;2.57;2.37;;;9.70;99.90;;;;;;4933153;29;20720;-71
2022/05/31 02:29:11;;;;;;;2.50;2.30;;;9.70;99.90;;;;;;4933536;29;20197;-71
2022/05/31 02:32:01;;;;;;;3.33;2.60;;;9.60;99.90;;;;;;4932308;29;20230;-71
2022/05/31 02:34:48;;;;;;;4.33;2.60;;;9.60;99.90;;;;;;4934199;29;20180;-71
2022/05/31 02:37:34;;;;;;;3.10;2.60;;;9.60;99.90;;;;;;4925447;29;20220;-71
2022/05/31 02:40:18;;;;;;;3.27;2.47;;;9.60;99.90;;;;;;4930515;29;20270;-71
2022/05/31 02:43:02;;;;;;;5.30;2.50;;;9.50;99.90;;;;;;4924326;29;20206;-71
2022/05/31 02:45:46;;;;;;;2.83;2.37;;;9.50;99.90;;;;;;4930656;29;20187;-71
2022/05/31 02:48:31;;;;;;;3.33;2.77;;;9.40;99.90;;;;;;4927544;29;20214;-71
2022/05/31 02:51:16;;;;;;;3.57;2.60;;;9.30;99.90;;;;;;4933269;29;20253;-71
2022/05/31 02:54:00;;;;;;;2.90;2.70;;;9.30;99.90;;;;;;4919896;29;20731;-71
2022/05/31 02:56:46;;;;;;;2.77;2.57;;;9.30;99.90;;;;;;4934287;29;20195;-71
2022/05/31 02:59:30;;;;;;;4.80;2.97;;;9.20;99.90;;;;;;4925298;29;20196;-71
2022/05/31 03:02:15;;;;;;;2.90;2.47;;;9.20;99.90;;;;;;4933735;29;20446;-71
2022/05/31 03:04:59;;;;;;;3.97;3.23;;;9.20;99.90;;;;;;4923072;29;20223;-71
2022/05/31 03:07:43;;;;;;;3.60;2.90;;;9.20;99.90;;;;;;4933775;29;20214;-71
2022/05/31 03:10:32;;;;;;;4.23;3.03;;;9.20;99.90;;;;;;4925342;29;20766;-71
2022/05/31 03:13:22;;;;;;;3.20;2.90;;;9.20;99.90;;;;;;4927150;29;20215;-71
2022/05/31 03:16:07;;;;;;;5.97;2.90;;;9.20;99.90;;;;;;4943271;28;20210;-71
2022/05/31 03:19:04;;;;;;;3.07;2.80;;;9.20;99.90;;;;;;4929820;29;20783;-71
2022/05/31 03:21:56;;;;;;;3.93;2.97;;;9.10;99.90;;;;;;4933499;29;20219;-70
2022/05/31 03:24:49;;;;;;;6.73;2.87;;;9.10;99.90;;;;;;4930770;29;20262;-71
2022/05/31 03:27:33;;;;;;;2.87;2.67;;;9.10;99.90;;;;;;4918664;29;20743;-71
2022/05/31 03:30:18;;;;;;;3.33;3.00;;;9.00;99.90;;;;;;4928662;29;20215;-71
2022/05/31 03:33:03;;;;;;;2.80;2.60;;;9.00;99.90;;;;;;4930183;29;20203;-71
2022/05/31 03:35:48;;;;;;;3.80;3.30;;;9.00;99.90;;;;;;4929826;29;20210;-72
2022/05/31 03:38:32;;;;;;;3.93;3.50;;;9.00;99.90;;;;;;4928478;29;20191;-71
2022/05/31 03:41:16;;;;;;;4.17;3.30;;;8.90;99.90;;;;;;4931097;29;20230;-71
2022/05/31 03:44:00;;;;;;;3.50;3.20;;;8.90;99.90;;;;;;4924234;29;20210;-71
2022/05/31 03:46:47;;;;;;;3.57;3.20;;;8.90;99.90;;;;;;4926445;29;20726;-71
2022/05/31 03:49:32;;;;;;;3.80;3.30;;;8.90;99.90;;;;;;4936313;28;20198;-71
2022/05/31 03:52:17;;;;;;;5.00;3.27;;;8.90;99.90;;;;;;4925033;29;20206;-71
2022/05/31 03:55:01;;;;;;;3.73;3.30;;;8.80;99.90;;;;;;4929240;29;20604;-71
2022/05/31 03:57:50;;;;;;;3.93;3.03;;;8.90;99.90;;;;;;4928652;29;20202;-71
2022/05/31 04:00:35;;;;;;;4.33;3.07;;;8.90;99.90;;;;;;4932520;29;20229;-73
2022/05/31 04:03:20;;;;;;;4.67;3.50;;;8.90;99.90;;;;;;4922022;29;20578;-73
2022/05/31 04:06:04;;;;;;;4.23;3.17;;;8.90;99.90;;;;;;4925129;29;20226;-73
2022/05/31 04:08:49;;;;;;;3.90;3.60;;;8.90;99.90;;;;;;4929171;29;20252;-71
2022/05/31 04:11:33;;;;;;;4.43;3.30;;;8.90;99.90;;;;;;4929098;29;20214;-71
2022/05/31 04:14:17;;;;;;;5.13;3.30;;;8.80;99.90;;;;;;4928749;29;20203;-71
2022/05/31 04:17:01;;;;;;;4.23;3.50;;;8.90;99.90;;;;;;4926701;29;20324;-71
2022/05/31 04:19:45;;;;;;;5.33;3.70;;;8.90;99.90;;;;;;4932370;29;20194;-72
2022/05/31 04:22:29;;;;;;;4.23;3.83;;;8.90;99.90;;;;;;4940790;29;20182;-71
2022/05/31 04:25:13;;;;;;;3.63;3.23;;;8.90;99.90;;;;;;4929026;29;20202;-71
2022/05/31 04:27:57;;;;;;;4.80;3.67;;;8.90;99.90;;;;;;4926397;29;20236;-71
2022/05/31 04:30:45;;;;;;;5.57;4.00;;;9.00;99.90;;;;;;4928514;29;20257;-73
2022/05/31 04:33:29;;;;;;;7.67;4.07;;;9.00;99.90;;;;;;4930117;29;20290;-73
2022/05/31 04:36:15;;;;;;;5.53;4.33;;;9.00;99.90;;;;;;4929121;29;20189;-73
2022/05/31 04:39:00;;;;;;;4.23;3.83;;;9.00;99.90;;;;;;4927209;29;20198;-73
2022/05/31 04:41:44;;;;;;;4.33;3.80;;;9.00;99.90;;;;;;4926439;29;20699;-73
2022/05/31 04:44:28;;;;;;;4.73;3.90;;;9.10;99.90;;;;;;4926540;29;20247;-73
2022/05/31 04:47:12;;;;;;;6.90;3.83;;;9.10;99.90;;;;;;4930559;29;20242;-73
2022/05/31 04:49:56;;;;;;;4.60;4.20;;;9.10;99.90;;;;;;4945515;28;20187;-73
2022/05/31 04:52:40;;;;;;;8.93;4.33;;;9.20;99.90;;;;;;4924498;29;20188;-73
2022/05/31 04:55:24;;;;;;;7.83;4.50;;;9.20;99.90;;;;;;4931206;29;20242;-70
2022/05/31 04:58:09;;;;;;;5.20;4.40;;;9.20;99.90;;;;;;4927462;29;20624;-70
2022/05/31 05:00:53;;;;;;;5.27;4.23;;;9.20;99.90;;;;;;4925508;29;20266;-73
2022/05/31 05:03:37;;;;;;;4.67;3.93;;;9.30;99.90;;;;;;4938636;28;20255;-72
2022/05/31 05:06:22;;;;;;;5.53;4.00;;;9.30;99.90;;;;;;4937768;29;20199;-72
2022/05/31 05:09:07;;;;;;;4.30;3.90;;;9.30;99.90;;;;;;4929508;29;20205;-73
2022/05/31 05:11:51;;;;;;;5.87;4.37;;;9.30;99.90;;;;;;4926651;29;20385;-73
2022/05/31 05:14:35;;;;;;;5.67;4.33;;;9.30;99.90;;;;;;4923817;29;20234;-73
2022/05/31 05:17:19;;;;;;;5.63;4.33;;;9.40;99.90;;;;;;4929274;29;20186;-72
2022/05/31 05:20:03;;;;;;;4.77;4.17;;;9.40;99.90;;;;;;4925053;29;20217;-72
2022/05/31 05:22:47;;;;;;;6.43;4.07;;;9.50;99.90;;;;;;4924253;29;20328;-73
2022/05/31 05:25:31;;;;;;;4.57;3.97;;;9.60;99.90;;;;;;4942279;28;20186;-72
2022/05/31 05:31:28;;;;;;;7.37;4.60;;;9.70;99.90;;;;;;4925725;29;20267;-73
2022/05/31 05:34:12;;;;;;;5.57;4.00;;;9.70;99.90;;;;;;4928008;29;20195;-72
2022/05/31 05:36:56;;;;;;;4.73;4.07;;;9.80;99.90;;;;;;4927925;29;20643;-72
2022/05/31 05:39:40;;;;;;;4.27;3.87;;;9.80;99.90;;;;;;4925811;29;20550;-73
2022/05/31 05:42:24;;;;;;;5.07;4.50;;;9.90;99.90;;;;;;4922707;29;20192;-72
2022/05/31 05:45:10;;;;;;;4.90;4.20;;;10.00;99.90;;;;;;4940031;28;20289;-72
2022/05/31 05:47:54;;;;;;;4.60;4.10;;;10.00;99.90;;;;;;4920435;29;20265;-72
2022/05/31 05:50:38;;;;;;;4.97;3.97;;;10.10;99.90;;;;;;4927043;29;20215;-73
2022/05/31 05:53:22;;;;;;;8.37;4.20;;;10.20;99.90;;;;;;4928904;29;20183;-73
2022/05/31 05:56:07;;;;;;;7.63;4.20;;;10.20;99.90;;;;;;4926448;29;20197;-72
2022/05/31 05:58:51;;;;;;;5.83;3.80;;;10.30;99.90;;;;;;4925137;29;20209;-72
2022/05/31 06:01:50;;;;;;;6.47;3.80;;;10.30;99.90;;;;;;4930815;28;20307;-72
2022/05/31 06:04:42;;;;;;;4.73;3.70;;;10.40;99.90;;;;;;4927654;29;20239;-73
2022/05/31 06:07:28;;;;;;;6.10;3.50;;;10.40;99.90;;;;;;4929235;29;20203;-73
2022/05/31 06:10:17;;;;;;;6.73;3.80;;;10.50;99.90;;;;;;4918483;29;20222;-73
2022/05/31 06:13:20;;;;;;;4.37;3.33;;;10.50;99.90;;;;;;4923413;29;20782;-73
2022/05/31 06:16:05;;;;;;;6.07;3.23;;;10.60;99.90;;;;;;4924001;29;20294;-73
2022/05/31 06:18:54;;;;;;;6.87;3.80;;;10.60;99.90;;;;;;4927324;29;20263;-73
2022/05/31 06:21:39;;;;;;;4.37;3.40;;;10.70;99.90;;;;;;4933444;29;20223;-73
2022/05/31 06:24:23;;;;;;;3.20;2.90;;;10.70;99.90;;;;;;4927427;29;20270;-73
2022/05/31 06:27:08;;;;;;;3.90;3.10;;;10.80;99.90;;;;;;4930482;29;20267;-73
2022/05/31 06:29:52;;;;;;;4.30;3.20;;;10.80;99.90;;;;;;4926363;29;20194;-73
2022/05/31 06:32:37;;;;;;;4.23;3.33;;;10.90;99.90;;;;;;4929215;29;20187;-73
2022/05/31 06:35:21;;;;;;;4.20;3.03;;;11.10;99.90;;;;;;4937118;29;20246;-73
2022/05/31 06:38:05;;;;;;;4.33;2.67;;;11.20;99.90;;;;;;4924404;29;20190;-74
2022/05/31 06:40:52;;;;;;;5.53;2.60;;;11.30;99.90;;;;;;4933247;29;20311;-74
2022/05/31 06:43:36;;;;;;;3.17;2.57;;;11.40;99.90;;;;;;4941822;28;20186;-74
2022/05/31 06:46:20;;;;;;;6.03;3.07;;;11.50;99.90;;;;;;4941346;28;20203;-74
2022/05/31 06:49:04;;;;;;;5.60;3.07;;;11.60;99.90;;;;;;4934521;29;20266;-74
2022/05/31 06:57:56;;;;;;;5.17;3.00;;;12.00;99.90;;;;;;4923651;29;20198;-73
2022/05/31 07:00:40;;;;;;;3.63;2.80;;;12.10;99.90;;;;;;4927374;29;20242;-74
2022/05/31 07:03:24;;;;;;;4.80;2.80;;;12.20;99.90;;;;;;4926873;29;20217;-74
2022/05/31 07:06:09;;;;;;;4.13;2.73;;;12.30;99.90;;;;;;4931303;29;20638;-74
2022/05/31 07:08:54;;;;;;;5.57;2.67;;;12.40;99.90;;;;;;4930293;29;20209;-74
2022/05/31 07:11:40;;;;;;;8.37;3.07;;;12.50;99.90;;;;;;4929032;29;20214;-76
2022/05/31 07:14:25;;;;;;;4.70;2.80;;;12.60;99.90;;;;;;4928215;29;20390;-75
2022/05/31 07:17:10;;;;;;;4.97;2.77;;;12.70;99.90;;;;;;4926197;29;20203;-74
2022/05/31 07:19:54;;;;;;;8.57;3.27;;;12.80;99.90;;;;;;4925133;29;20691;-74
2022/05/31 07:22:39;;;;;;;3.17;2.60;;;12.90;99.90;;;;;;4929504;29;20190;-75
2022/05/31 07:25:24;;;;;;;3.47;2.20;;;13.00;99.90;;;;;;4930431;29;20199;-75
2022/05/31 07:28:08;;;;;;;6.03;2.43;;;13.10;99.90;;;;;;4936626;29;20278;-74
2022/05/31 07:33:47;;;;;;;4.47;1.97;;;13.30;99.90;;;;;;4944502;28;20205;-86
2022/05/31 07:36:37;;;;;;;2.37;2.23;;;13.50;99.90;;;;;;4946074;28;20230;-85
2022/05/31 07:39:46;;;;;;;5.73;2.47;;;13.60;99.90;;;;;;4947481;28;20226;-86
2022/05/31 07:46:47;;;;;;;3.10;1.50;;;13.70;99.90;;;;;;4948099;28;20198;-85
2022/05/31 07:49:34;;;;;;;4.80;1.87;;;13.70;99.90;;;;;;4954169;28;20210;-84
2022/05/31 07:52:18;;;;;;;2.93;1.60;;;13.80;99.90;;;;;;4942351;28;20226;-86
2022/05/31 07:55:02;;;;;;;1.70;1.37;;;13.90;99.90;;;;;;4949523;28;20250;-85
2022/05/31 08:00:50;;;;;;;3.70;1.80;;;14.00;99.90;;;;;;4946184;28;20223;-83
2022/05/31 08:03:35;;;;;;;3.00;1.70;;;14.10;99.90;;;;;;4940572;28;20250;-79
2022/05/31 08:06:23;;;;;;;3.83;1.50;;;14.20;99.90;;;;;;4950228;28;20250;-79
2022/05/31 08:09:07;;;;;;;5.00;1.67;;;14.30;99.90;;;;;;4947405;28;20275;-82
2022/05/31 08:11:51;;;;;;;4.37;1.77;;;14.30;99.90;;;;;;4953280;28;20269;-77
2022/05/31 08:14:36;;;;;;;5.40;1.77;;;14.30;99.90;;;;;;4958181;28;20266;-83
2022/05/31 08:17:20;;;;;;;3.07;1.60;;;14.40;99.90;;;;;;4964395;28;20194;-82
2022/05/31 08:20:06;;;;;;;3.00;1.37;;;14.40;99.90;;;;;;4952538;28;20201;-82
2022/05/31 08:22:51;;;;;;;3.00;1.90;;;14.50;99.90;;;;;;4959632;28;20202;-80
2022/05/31 08:25:40;;;;;;;3.17;1.93;;;14.60;99.90;;;;;;4945077;28;20199;-81
2022/05/31 08:28:24;;;;;;;3.23;1.43;;;14.70;99.90;;;;;;4943395;28;20237;-80
2022/05/31 08:31:11;;;;;;;2.43;1.37;;;14.70;99.90;;;;;;4947748;28;20293;-80
2022/05/31 08:33:55;;;;;;;2.80;1.60;;;14.70;99.90;;;;;;4945827;28;20226;-81
2022/05/31 08:36:39;;;;;;;6.10;1.63;;;14.70;99.90;;;;;;4947453;28;20202;-80
2022/05/31 08:39:24;;;;;;;1.80;1.50;;;14.80;99.90;;;;;;4950331;28;20300;-80
2022/05/31 08:42:13;;;;;;;4.10;2.00;;;14.80;99.90;;;;;;4949734;28;20231;-80
2022/05/31 08:45:08;;;;;;;5.50;1.63;;;14.80;99.90;;;;;;4939793;28;20311;-81
2022/05/31 08:48:14;;;;;;;3.63;1.60;;;14.90;99.90;;;;;;4944922;28;20277;-81
2022/05/31 08:57:30;;;;;;;2.10;0.90;;;15.00;99.90;;;;;;4943647;28;20221;-81
2022/05/31 09:00:18;;;;;;;1.60;1.17;;;15.00;99.90;;;;;;4965954;28;20253;-83
2022/05/31 09:03:25;;;;;;;1.83;1.03;;;15.10;99.90;;;;;;4964601;28;20243;-83
2022/05/31 09:06:15;;;;;;;1.43;0.80;;;15.20;99.90;;;;;;4944727;28;20213;-82
2022/05/31 09:09:13;;;;;;;2.00;1.03;;;15.40;99.90;;;;;;4950303;28;20218;-81
2022/05/31 09:12:10;;;;;;;1.67;1.17;;;15.50;99.90;;;;;;4942674;28;20226;-80
2022/05/31 09:15:03;;;;;;;4.87;0.83;;;15.50;99.90;;;;;;4959559;28;20194;-80
2022/05/31 09:18:02;;;;;;;2.83;0.80;;;15.60;99.90;;;;;;4947787;28;20229;-80
2022/05/31 09:20:56;;;;;;;4.50;0.90;;;15.60;99.90;;;;;;4949407;28;20268;-80
2022/05/31 09:23:40;;;;;;;2.33;0.87;;;15.70;99.90;;;;;;4945805;28;20215;-81
2022/05/31 09:26:44;;;;;;;1.40;0.90;;;15.80;99.90;;;;;;4952035;28;20195;-80
2022/05/31 09:29:48;;;;;;;2.50;0.83;;;15.90;99.90;;;;;;4952718;28;20189;-81
2022/05/31 09:32:43;;;;;;;2.87;0.97;;;16.00;99.90;;;;;;4960369;28;20201;-80
2022/05/31 09:35:41;;;;;;;2.67;0.83;;;16.00;99.90;;;;;;4965887;28;20249;-80
2022/05/31 09:39:03;;;;;;;2.83;1.20;;;16.10;99.90;;;;;;4953346;28;20233;-81
2022/05/31 09:41:51;;;;;;;1.40;1.00;;;16.20;99.90;;;;;;4949446;28;20270;-82
2022/05/31 09:44:38;;;;;;;2.63;1.03;;;16.30;99.90;;;;;;4946743;28;20194;-81
2022/05/31 09:47:27;;;;;;;2.93;1.13;;;16.40;99.90;;;;;;4974211;28;20250;-81
2022/05/31 09:50:11;;;;;;;2.03;1.00;;;16.40;99.90;;;;;;4954743;28;20570;-83
2022/05/31 09:52:58;;;;;;;1.07;0.60;;;16.40;99.90;;;;;;4942119;28;20193;-81
2022/05/31 09:59:06;;;;;;;0.50;0.50;;;16.40;99.90;;;;;;4949244;28;20204;-80
2022/05/31 10:01:51;;;;;;;2.43;0.90;;;16.50;99.90;;;;;;4955691;28;20208;-81
2022/05/31 10:04:35;;;;;;;1.83;0.87;;;16.50;99.90;;;;;;4952003;28;20282;-82
2022/05/31 10:07:34;;;;;;;1.83;0.80;;;16.50;99.90;;;;;;4968369;28;20613;-81
2022/05/31 10:10:32;;;;;;;2.23;0.97;;;16.60;99.90;;;;;;4977268;28;20712;-81
2022/05/31 10:13:39;;;;;;;0.80;0.60;;;16.70;99.90;;;;;;4968593;28;20181;-81
2022/05/31 10:16:27;;;;;;;1.27;0.70;;;16.70;99.90;;;;;;4950684;28;20201;-82
2022/05/31 10:19:26;;;;;;;2.30;0.87;;;16.70;99.90;;;;;;4953714;28;20278;-81
2022/05/31 10:22:18;;;;;;;0.80;0.70;;;16.80;99.90;;;;;;4962594;28;20266;-82
2022/05/31 10:25:21;;;;;;;1.80;0.60;;;16.80;99.90;;;;;;4962221;28;20194;-82
2022/05/31 10:28:23;;;;;;;1.10;0.60;;;16.90;99.90;;;;;;4950850;28;20334;-81
2022/05/31 10:31:34;;;;;;;1.43;0.60;;;17.00;99.90;;;;;;4967605;28;20209;-81
2022/05/31 10:34:44;;;;;;;4.27;0.73;;;17.10;99.90;;;;;;4963850;28;20188;-81
2022/05/31 10:37:32;;;;;;;1.73;0.67;;;17.20;99.90;;;;;;4964726;28;20696;-81
2022/05/31 10:40:22;;;;;;;1.80;0.83;;;17.30;99.90;;;;;;4972434;28;20262;-82
2022/05/31 10:43:30;;;;;;;2.93;0.70;;;17.30;99.90;;;;;;4953432;28;20202;-81
2022/05/31 10:46:26;;;;;;;1.47;0.67;;;17.40;99.90;;;;;;4960362;28;20680;-81
2022/05/31 10:49:22;;;;;;;1.27;0.70;;;17.50;99.90;;;;;;4951527;28;20222;-82
2022/05/31 10:52:31;;;;;;;2.17;0.73;;;17.50;99.90;;;;;;4964916;28;20705;-82
2022/05/31 10:55:39;;;;;;;2.37;0.80;;;17.60;99.90;;;;;;4968145;28;20206;-82
2022/05/31 10:58:41;;;;;;;2.20;0.90;;;17.70;99.90;;;;;;4966154;28;20181;-82
2022/05/31 11:01:52;;;;;;;2.33;1.10;;;17.80;99.90;;;;;;4967889;28;20222;-82
2022/05/31 11:05:02;;;;;;;2.30;0.97;;;17.90;99.90;;;;;;4952263;28;20190;-81
2022/05/31 11:11:30;;;;;;;3.20;0.90;;;17.90;99.90;;;;;;4945391;28;20210;-81
2022/05/31 11:14:42;;;;;;;2.97;1.23;;;17.90;99.90;;;;;;4959349;28;20265;-81
2022/05/31 11:18:02;;;;;;;4.47;1.63;;;17.90;99.90;;;;;;4964888;28;20230;-82
2022/05/31 11:20:57;;;;;;;4.20;1.30;;;18.10;99.90;;;;;;4954003;28;20218;-81
2022/05/31 11:24:17;;;;;;;3.40;1.50;;;18.10;99.90;;;;;;4955642;28;20190;-81
2022/05/31 11:27:37;;;;;;;3.53;1.07;;;18.00;99.90;;;;;;4944982;28;20237;-81
2022/05/31 11:30:37;;;;;;;2.17;1.40;;;17.90;99.90;;;;;;4952484;28;20197;-81
2022/05/31 11:33:31;;;;;;;1.60;1.20;;;17.80;99.90;;;;;;4959492;28;20251;-80
2022/05/31 11:36:43;;;;;;;2.67;1.73;;;17.70;99.90;;;;;;4969499;28;20552;-81
2022/05/31 11:40:07;;;;;;;1.87;1.33;;;17.70;99.90;;;;;;4958710;28;20194;-80
2022/05/31 11:43:23;;;;;;;3.50;1.60;;;17.60;99.90;;;;;;4954184;28;20195;-84
2022/05/31 11:46:22;;;;;;;4.87;1.70;;;17.60;99.90;;;;;;4957947;28;20202;-82
2022/05/31 11:49:31;;;;;;;2.07;1.63;;;17.70;99.90;;;;;;4948784;28;20221;-81
2022/05/31 11:52:30;;;;;;;2.70;1.50;;;17.70;99.90;;;;;;4942992;28;20213;-81
2022/05/31 11:55:30;;;;;;;4.10;1.80;;;17.70;99.90;;;;;;4948244;28;20206;-81
2022/05/31 11:58:33;;;;;;;2.17;1.63;;;17.70;99.90;;;;;;4949005;28;20200;-80
2022/05/31 12:01:27;;;;;;;5.27;1.87;;;17.70;99.90;;;;;;4949876;28;20293;-83
2022/05/31 12:04:25;;;;;;;1.67;1.20;;;17.70;99.90;;;;;;4946203;28;20191;-81
2022/05/31 12:07:12;;;;;;;2.23;1.57;;;17.70;99.90;;;;;;4953111;28;20219;-80
2022/05/31 12:10:32;;;;;;;3.70;1.40;;;17.70;99.90;;;;;;4960079;28;20238;-81
2022/05/31 12:13:19;;;;;;;3.97;1.30;;;17.70;99.90;;;;;;4960728;28;20234;-81
2022/05/31 12:16:04;;;;;;;2.57;1.23;;;17.70;99.90;;;;;;4958895;28;20198;-81
2022/05/31 12:19:03;;;;;;;3.70;1.50;;;17.70;99.90;;;;;;4942266;28;20194;-81
2022/05/31 12:22:04;;;;;;;1.83;1.30;;;17.60;99.90;;;;;;4965341;28;20214;-81
2022/05/31 12:25:10;;;;;;;2.07;1.37;;;17.60;99.90;;;;;;4956233;28;20241;-81
2022/05/31 12:28:06;;;;;;;6.63;1.77;;;17.60;99.90;;;;;;4941677;28;20685;-84
2022/05/31 12:30:55;;;;;;;2.33;1.73;;;17.60;99.90;;;;;;4939440;28;20206;-81
2022/05/31 12:33:43;;;;;;;5.20;1.67;;;17.50;99.90;;;;;;4947446;28;20198;-84
2022/05/31 12:37:06;;;;;;;3.17;1.53;;;17.60;99.90;;;;;;4966233;28;20190;-82
2022/05/31 12:40:23;;;;;;;3.33;1.77;;;17.60;99.90;;;;;;4941561;28;20191;-81
2022/05/31 12:43:51;;;;;;;3.33;1.90;;;17.70;99.90;;;;;;4945261;28;20182;-83
2022/05/31 12:46:45;;;;;;;3.93;1.50;;;17.70;99.90;;;;;;4939475;28;20274;-81
2022/05/31 12:49:31;;;;;;;4.07;1.60;;;17.80;99.90;;;;;;4950985;28;20199;-82
2022/05/31 12:55:25;;;;;;;3.97;1.80;;;17.90;99.90;;;;;;4950936;28;20254;-81
2022/05/31 12:58:32;;;;;;;2.80;1.53;;;18.00;99.90;;;;;;4935971;28;20202;-82
2022/05/31 13:01:22;;;;;;;2.07;1.40;;;17.90;99.90;;;;;;4983599;28;20213;-81
2022/05/31 13:04:17;;;;;;;4.57;1.50;;;18.00;99.90;;;;;;4950522;28;20214;-82
2022/05/31 13:07:17;;;;;;;1.40;1.30;;;18.00;99.90;;;;;;4950640;28;20209;-82
2022/05/31 13:10:27;;;;;;;2.43;1.50;;;18.10;99.90;;;;;;4950262;28;20277;-86
2022/05/31 13:19:56;;;;;;;4.27;1.83;;;18.30;99.90;;;;;;4954852;28;20209;-81
2022/05/31 13:22:48;;;;;;;4.00;1.47;;;18.40;99.90;;;;;;4944275;28;20190;-82
2022/05/31 13:26:05;;;;;;;2.20;1.50;;;18.50;99.90;;;;;;4963259;28;20293;-81
2022/05/31 13:28:52;;;;;;;2.57;1.60;;;18.50;99.90;;;;;;4954863;28;20636;-81
2022/05/31 13:31:57;;;;;;;2.78;1.60;;;18.40;99.90;;;;;;4956752;28;20224;-83
2022/05/31 13:34:49;;;;;;;2.07;1.47;;;18.50;99.90;;;;;;4949622;28;20197;-82
2022/05/31 13:37:51;;;;;;;2.67;1.40;;;18.50;99.90;;;;;;4958849;28;20250;-82
2022/05/31 13:40:45;;;;;;;3.17;1.53;;;18.60;99.90;;;;;;4949475;28;20217;-82
2022/05/31 13:43:35;;;;;;;2.67;1.33;;;18.50;99.90;;;;;;4965069;28;20281;-83
2022/05/31 13:46:29;;;;;;;3.72;1.85;;;18.40;99.90;;;;;;4951514;28;20189;-80
2022/05/31 13:49:26;;;;;;;3.97;1.60;;;18.40;99.90;;;;;;4949090;28;20387;-81
2022/05/31 13:52:25;;;;;;;4.33;1.60;;;18.30;99.90;;;;;;4961571;28;20221;-82
2022/05/31 13:55:23;;;;;;;2.60;1.50;;;18.30;99.90;;;;;;4947519;28;20209;-81
2022/05/31 13:58:12;;;;;;;2.95;1.20;;;18.30;99.90;;;;;;4940793;28;20270;-83
2022/05/31 14:00:58;;;;;;;1.25;1.13;;;18.40;99.90;;;;;;4942336;28;20241;-85
2022/05/31 14:03:42;;;;;;;2.57;1.47;;;18.40;99.90;;;;;;4944888;28;20217;-81
2022/05/31 14:06:30;;;;;;;3.17;1.53;;;18.40;99.90;;;;;;4956922;28;20201;-81
2022/05/31 14:09:21;;;;;;;3.07;2.00;;;18.50;99.90;;;;;;4941843;28;20297;-82
2022/05/31 14:12:08;;;;;;;2.20;1.23;;;18.50;99.90;;;;;;4942878;28;20222;-80
2022/05/31 14:14:53;;;;;;;3.07;1.60;;;18.50;99.90;;;;;;4944388;28;20561;-83
2022/05/31 14:17:41;;;;;;;2.93;1.47;;;18.50;99.90;;;;;;4944649;28;20290;-81
2022/05/31 14:20:28;;;;;;;2.57;1.23;;;18.30;99.90;;;;;;4943640;28;20209;-82
2022/05/31 14:23:22;;;;;;;2.17;1.23;;;18.30;99.90;;;;;;4944054;28;20205;-81
2022/05/31 14:26:08;;;;;;;3.30;1.70;;;18.30;99.90;;;;;;4943149;28;20230;-82
2022/05/31 14:29:19;;;;;;;5.73;1.67;;;18.40;99.90;;;;;;4956292;28;20242;-82
2022/05/31 14:32:04;;;;;;;2.87;1.60;;;18.30;99.90;;;;;;4941754;28;20226;-81
2022/05/31 14:34:52;;;;;;;4.15;1.60;;;18.20;99.90;;;;;;4945177;28;20218;-81
2022/05/31 14:37:40;;;;;;;1.63;1.20;;;18.20;99.90;;;;;;4948075;28;20198;-81
2022/05/31 14:40:37;;;;;;;2.23;1.30;;;18.20;99.90;;;;;;4943284;28;20249;-81
2022/05/31 14:43:50;;;;;;;4.30;1.47;;;18.30;99.90;;;;;;4944295;28;20302;-81
2022/05/31 14:46:37;;;;;;;2.45;1.63;;;18.30;99.90;;;;;;4950011;28;20189;-81
2022/05/31 14:49:27;;;;;;;2.57;1.30;;;18.30;99.90;;;;;;4949384;28;20205;-81
2022/05/31 14:52:32;;;;;;;6.63;1.43;;;18.30;99.90;;;;;;4947317;28;20213;-81
2022/05/31 14:55:27;;;;;;;2.80;1.80;;;18.30;99.90;;;;;;4950717;28;20190;-80
2022/05/31 14:58:43;;;;;;;4.00;1.60;;;18.40;99.90;;;;;;4952447;28;20204;-84
2022/05/31 15:01:54;;;;;;;2.43;1.30;;;18.50;99.90;;;;;;4954762;28;20226;-80
2022/05/31 15:04:57;;;;;;;1.85;1.13;;;18.50;99.90;;;;;;4945422;28;20756;-81
2022/05/31 15:08:00;;;;;;;2.10;1.23;;;18.40;99.90;;;;;;4962810;28;20422;-81
2022/05/31 15:10:53;;;;;;;3.60;1.43;;;18.30;99.90;;;;;;4947427;28;20234;-81
2022/05/31 15:19:44;;;;;;;2.00;1.40;;;18.20;99.90;;;;;;4946583;28;20209;-84
2022/05/31 15:22:28;;;;;;;4.17;1.70;;;18.20;99.90;;;;;;4944204;28;20287;-84
2022/05/31 15:25:23;;;;;;;3.20;1.30;;;18.10;99.90;;;;;;4951312;28;20697;-81
2022/05/31 15:28:08;;;;;;;2.67;1.47;;;18.10;99.90;;;;;;4950111;28;20691;-81
2022/05/31 15:30:52;;;;;;;2.53;1.45;;;18.20;99.90;;;;;;4955002;28;20242;-82
2022/05/31 15:33:37;;;;;;;2.63;1.40;;;18.20;99.90;;;;;;4950813;28;20189;-81
2022/05/31 15:36:22;;;;;;;3.97;1.27;;;18.10;99.90;;;;;;4951339;28;20206;-86
2022/05/31 15:39:11;;;;;;;1.67;1.43;;;18.10;99.90;;;;;;4947428;28;20238;-85
2022/05/31 15:41:56;;;;;;;2.63;1.70;;;18.10;99.90;;;;;;4952577;28;20355;-79
2022/05/31 15:44:42;;;;;;;2.40;1.43;;;18.00;99.90;;;;;;4949240;28;20205;-82